Arden, Nevada
Current Conditions -  °F | °C
As of 7:56 AM on Friday 19 Dec 2014 (Local Time) from KLAS Reporting Station
Broken Clouds Broken Clouds  
Wind Chill: 44°   Ceiling: 25000
Heat Index: 44°   Visibility: 10mi
Dew Point: 36°   Wind: 3mph
Humidity: 73%   Direction: 220°SW
Pressure: 30.22"   Gusts: NA
Location:  36.079°N, 115.211°W
Report Text: KLAS 191556Z 22003KT 10SM BKN250 07/02 A3022 RMK AO2 SLP233 T00670022
Loading
Personal Weather Stations






























Interactive Weather Map New forecast layout! Learn more

10-Day Weather Forecast

Advertisements
Track Severe Weather on mobile